sensor_id;sensor_type;location;lat;lon;timestamp;P1;durP1;ratioP1;P2;durP2;ratioP2
39772;SDS011;25451;51.960;6.250;2022-09-12T00:02:03;17.73;;;10.33;;
39772;SDS011;25451;51.960;6.250;2022-09-12T00:04:28;15.93;;;9.53;;
39772;SDS011;25451;51.960;6.250;2022-09-12T00:06:53;17.23;;;10.40;;
39772;SDS011;25451;51.960;6.250;2022-09-12T00:09:19;16.97;;;10.43;;
39772;SDS011;25451;51.960;6.250;2022-09-12T00:11:44;16.23;;;10.03;;
39772;SDS011;25451;51.960;6.250;2022-09-12T00:14:12;16.85;;;9.60;;
39772;SDS011;25451;51.960;6.250;2022-09-12T00:16:39;18.42;;;9.98;;
39772;SDS011;25451;51.960;6.250;2022-09-12T00:19:05;16.90;;;9.87;;
39772;SDS011;25451;51.960;6.250;2022-09-12T00:21:32;15.80;;;9.80;;
39772;SDS011;25451;51.960;6.250;2022-09-12T00:23:58;16.70;;;9.23;;
39772;SDS011;25451;51.960;6.250;2022-09-12T00:26:24;13.73;;;8.77;;
39772;SDS011;25451;51.960;6.250;2022-09-12T00:28:49;16.17;;;8.57;;
39772;SDS011;25451;51.960;6.250;2022-09-12T00:31:16;15.68;;;9.60;;
39772;SDS011;25451;51.960;6.250;2022-09-12T00:33:43;16.83;;;9.85;;
39772;SDS011;25451;51.960;6.250;2022-09-12T00:36:10;16.57;;;9.73;;
39772;SDS011;25451;51.960;6.250;2022-09-12T00:38:38;16.08;;;9.65;;
39772;SDS011;25451;51.960;6.250;2022-09-12T00:41:05;16.10;;;10.13;;
39772;SDS011;25451;51.960;6.250;2022-09-12T00:43:39;17.10;;;9.63;;
39772;SDS011;25451;51.960;6.250;2022-09-12T00:46:12;14.98;;;8.82;;
39772;SDS011;25451;51.960;6.250;2022-09-12T00:48:48;16.50;;;9.07;;
39772;SDS011;25451;51.960;6.250;2022-09-12T00:51:18;16.02;;;9.60;;
39772;SDS011;25451;51.960;6.250;2022-09-12T00:53:44;14.48;;;8.80;;
39772;SDS011;25451;51.960;6.250;2022-09-12T00:56:12;16.95;;;9.68;;
39772;SDS011;25451;51.960;6.250;2022-09-12T00:58:41;14.02;;;8.20;;
39772;SDS011;25451;51.960;6.250;2022-09-12T01:01:28;17.02;;;9.35;;
39772;SDS011;25451;51.960;6.250;2022-09-12T01:03:53;16.73;;;9.70;;
39772;SDS011;25451;51.960;6.250;2022-09-12T01:06:24;17.20;;;9.82;;
39772;SDS011;25451;51.960;6.250;2022-09-12T01:08:56;18.03;;;10.20;;
39772;SDS011;25451;51.960;6.250;2022-09-12T01:11:23;16.80;;;9.77;;
39772;SDS011;25451;51.960;6.250;2022-09-12T01:13:50;16.50;;;9.80;;
39772;SDS011;25451;51.960;6.250;2022-09-12T01:16:15;16.93;;;9.73;;
39772;SDS011;25451;51.960;6.250;2022-09-12T01:24:23;17.77;;;9.30;;
39772;SDS011;25451;51.960;6.250;2022-09-12T01:30:00;18.25;;;10.20;;
39772;SDS011;25451;51.960;6.250;2022-09-12T01:32:37;18.47;;;10.50;;
39772;SDS011;25451;51.960;6.250;2022-09-12T01:35:52;21.45;;;10.38;;
39772;SDS011;25451;51.960;6.250;2022-09-12T01:38:12;18.63;;;10.18;;
39772;SDS011;25451;51.960;6.250;2022-09-12T01:40:50;19.23;;;10.70;;
39772;SDS011;25451;51.960;6.250;2022-09-12T01:43:34;18.48;;;10.40;;
39772;SDS011;25451;51.960;6.250;2022-09-12T01:46:16;17.80;;;9.93;;
39772;SDS011;25451;51.960;6.250;2022-09-12T01:54:10;18.25;;;9.90;;
39772;SDS011;25451;51.960;6.250;2022-09-12T01:56:40;21.67;;;10.68;;
39772;SDS011;25451;51.960;6.250;2022-09-12T01:59:30;18.17;;;9.33;;
39772;SDS011;25451;51.960;6.250;2022-09-12T02:02:06;18.90;;;9.82;;
39772;SDS011;25451;51.960;6.250;2022-09-12T02:04:47;18.55;;;10.20;;
39772;SDS011;25451;51.960;6.250;2022-09-12T02:07:18;21.08;;;10.65;;
39772;SDS011;25451;51.960;6.250;2022-09-12T02:09:58;17.98;;;9.80;;
39772;SDS011;25451;51.960;6.250;2022-09-12T02:12:31;19.77;;;10.07;;
39772;SDS011;25451;51.960;6.250;2022-09-12T02:15:03;18.17;;;9.75;;
39772;SDS011;25451;51.960;6.250;2022-09-12T02:17:34;18.73;;;10.38;;
39772;SDS011;25451;51.960;6.250;2022-09-12T02:22:39;16.52;;;9.27;;
39772;SDS011;25451;51.960;6.250;2022-09-12T02:25:08;17.57;;;9.90;;
39772;SDS011;25451;51.960;6.250;2022-09-12T02:27:37;18.15;;;9.55;;
39772;SDS011;25451;51.960;6.250;2022-09-12T02:30:08;17.30;;;9.52;;
39772;SDS011;25451;51.960;6.250;2022-09-12T02:40:23;17.67;;;9.88;;
39772;SDS011;25451;51.960;6.250;2022-09-12T02:42:49;18.85;;;10.30;;
39772;SDS011;25451;51.960;6.250;2022-09-12T02:45:15;18.43;;;10.03;;
39772;SDS011;25451;51.960;6.250;2022-09-12T02:50:16;20.27;;;10.45;;
39772;SDS011;25451;51.960;6.250;2022-09-12T02:52:42;18.90;;;10.60;;
39772;SDS011;25451;51.960;6.250;2022-09-12T02:55:08;18.83;;;10.43;;
39772;SDS011;25451;51.960;6.250;2022-09-12T02:57:37;16.65;;;9.48;;
39772;SDS011;25451;51.960;6.250;2022-09-12T03:00:02;17.47;;;10.23;;
39772;SDS011;25451;51.960;6.250;2022-09-12T03:02:44;17.13;;;10.10;;
39772;SDS011;25451;51.960;6.250;2022-09-12T03:05:36;16.98;;;8.88;;
39772;SDS011;25451;51.960;6.250;2022-09-12T03:11:07;19.27;;;10.10;;
39772;SDS011;25451;51.960;6.250;2022-09-12T03:16:43;18.45;;;9.73;;
39772;SDS011;25451;51.960;6.250;2022-09-12T03:19:34;18.73;;;10.25;;
39772;SDS011;25451;51.960;6.250;2022-09-12T03:30:02;19.70;;;9.85;;
39772;SDS011;25451;51.960;6.250;2022-09-12T03:32:39;19.35;;;10.18;;
39772;SDS011;25451;51.960;6.250;2022-09-12T03:35:09;20.85;;;10.13;;
39772;SDS011;25451;51.960;6.250;2022-09-12T03:37:36;23.35;;;10.75;;
39772;SDS011;25451;51.960;6.250;2022-09-12T03:40:02;20.07;;;10.17;;
39772;SDS011;25451;51.960;6.250;2022-09-12T03:42:29;19.05;;;9.80;;
39772;SDS011;25451;51.960;6.250;2022-09-12T03:44:55;19.87;;;9.60;;
39772;SDS011;25451;51.960;6.250;2022-09-12T03:47:20;21.03;;;10.13;;
39772;SDS011;25451;51.960;6.250;2022-09-12T03:49:45;19.50;;;10.10;;
39772;SDS011;25451;51.960;6.250;2022-09-12T03:52:10;19.67;;;10.50;;
39772;SDS011;25451;51.960;6.250;2022-09-12T03:54:36;19.65;;;10.45;;
39772;SDS011;25451;51.960;6.250;2022-09-12T03:57:01;20.33;;;10.30;;
39772;SDS011;25451;51.960;6.250;2022-09-12T03:59:27;22.10;;;10.47;;
39772;SDS011;25451;51.960;6.250;2022-09-12T04:01:52;19.47;;;10.13;;
39772;SDS011;25451;51.960;6.250;2022-09-12T04:04:17;20.27;;;9.00;;
39772;SDS011;25451;51.960;6.250;2022-09-12T04:06:43;17.40;;;9.30;;
39772;SDS011;25451;51.960;6.250;2022-09-12T04:09:08;20.90;;;10.40;;
39772;SDS011;25451;51.960;6.250;2022-09-12T04:11:33;19.70;;;10.23;;
39772;SDS011;25451;51.960;6.250;2022-09-12T04:14:00;22.58;;;10.70;;
39772;SDS011;25451;51.960;6.250;2022-09-12T04:16:25;20.63;;;10.17;;
39772;SDS011;25451;51.960;6.250;2022-09-12T04:18:50;21.00;;;10.30;;
39772;SDS011;25451;51.960;6.250;2022-09-12T04:21:16;23.70;;;11.40;;
39772;SDS011;25451;51.960;6.250;2022-09-12T04:23:43;20.83;;;10.73;;
39772;SDS011;25451;51.960;6.250;2022-09-12T04:26:09;22.42;;;10.77;;
39772;SDS011;25451;51.960;6.250;2022-09-12T04:28:36;23.95;;;11.80;;
39772;SDS011;25451;51.960;6.250;2022-09-12T04:31:03;21.50;;;10.73;;
39772;SDS011;25451;51.960;6.250;2022-09-12T04:33:42;24.05;;;11.18;;
39772;SDS011;25451;51.960;6.250;2022-09-12T04:36:13;21.88;;;11.38;;
39772;SDS011;25451;51.960;6.250;2022-09-12T04:38:41;23.50;;;11.13;;
39772;SDS011;25451;51.960;6.250;2022-09-12T04:43:51;20.77;;;10.20;;
39772;SDS011;25451;51.960;6.250;2022-09-12T04:46:18;21.70;;;11.23;;
39772;SDS011;25451;51.960;6.250;2022-09-12T04:48:44;20.55;;;10.48;;
39772;SDS011;25451;51.960;6.250;2022-09-12T04:51:11;19.53;;;9.73;;
39772;SDS011;25451;51.960;6.250;2022-09-12T04:53:41;20.58;;;10.57;;
39772;SDS011;25451;51.960;6.250;2022-09-12T04:56:08;20.50;;;10.25;;
39772;SDS011;25451;51.960;6.250;2022-09-12T04:58:34;22.17;;;11.07;;
39772;SDS011;25451;51.960;6.250;2022-09-12T05:01:07;22.33;;;10.38;;
39772;SDS011;25451;51.960;6.250;2022-09-12T05:03:34;20.50;;;10.35;;
39772;SDS011;25451;51.960;6.250;2022-09-12T05:06:03;22.70;;;10.73;;
39772;SDS011;25451;51.960;6.250;2022-09-12T05:08:30;26.60;;;11.82;;
39772;SDS011;25451;51.960;6.250;2022-09-12T05:10:55;22.87;;;10.70;;
39772;SDS011;25451;51.960;6.250;2022-09-12T05:13:21;23.90;;;11.60;;
39772;SDS011;25451;51.960;6.250;2022-09-12T05:15:53;23.67;;;11.03;;
39772;SDS011;25451;51.960;6.250;2022-09-12T05:18:19;23.92;;;11.07;;
39772;SDS011;25451;51.960;6.250;2022-09-12T05:20:45;24.30;;;11.23;;
39772;SDS011;25451;51.960;6.250;2022-09-12T05:23:10;22.33;;;11.33;;
39772;SDS011;25451;51.960;6.250;2022-09-12T05:25:35;20.93;;;10.87;;
39772;SDS011;25451;51.960;6.250;2022-09-12T05:28:01;23.80;;;11.03;;
39772;SDS011;25451;51.960;6.250;2022-09-12T05:30:26;23.83;;;11.30;;
39772;SDS011;25451;51.960;6.250;2022-09-12T05:32:51;23.17;;;10.77;;
39772;SDS011;25451;51.960;6.250;2022-09-12T05:35:17;22.97;;;11.47;;
39772;SDS011;25451;51.960;6.250;2022-09-12T05:37:42;22.00;;;10.50;;
39772;SDS011;25451;51.960;6.250;2022-09-12T05:40:07;23.73;;;11.60;;
39772;SDS011;25451;51.960;6.250;2022-09-12T05:42:33;23.23;;;10.87;;
39772;SDS011;25451;51.960;6.250;2022-09-12T05:44:58;23.87;;;10.83;;
39772;SDS011;25451;51.960;6.250;2022-09-12T05:47:24;24.37;;;11.13;;
39772;SDS011;25451;51.960;6.250;2022-09-12T05:49:49;24.75;;;11.20;;
39772;SDS011;25451;51.960;6.250;2022-09-12T05:52:16;26.23;;;11.43;;
39772;SDS011;25451;51.960;6.250;2022-09-12T05:54:41;24.40;;;11.83;;
39772;SDS011;25451;51.960;6.250;2022-09-12T05:57:07;24.98;;;11.73;;
39772;SDS011;25451;51.960;6.250;2022-09-12T05:59:32;28.17;;;11.90;;
39772;SDS011;25451;51.960;6.250;2022-09-12T06:01:58;23.00;;;11.57;;
39772;SDS011;25451;51.960;6.250;2022-09-12T06:04:24;26.65;;;12.27;;
39772;SDS011;25451;51.960;6.250;2022-09-12T06:06:50;24.65;;;11.68;;
39772;SDS011;25451;51.960;6.250;2022-09-12T06:09:16;27.73;;;11.87;;
39772;SDS011;25451;51.960;6.250;2022-09-12T06:11:42;28.00;;;12.15;;
39772;SDS011;25451;51.960;6.250;2022-09-12T06:14:10;25.92;;;11.88;;
39772;SDS011;25451;51.960;6.250;2022-09-12T06:16:37;28.80;;;12.48;;
39772;SDS011;25451;51.960;6.250;2022-09-12T06:19:04;23.92;;;11.80;;
39772;SDS011;25451;51.960;6.250;2022-09-12T06:21:32;26.42;;;11.70;;
39772;SDS011;25451;51.960;6.250;2022-09-12T06:23:59;26.98;;;12.20;;
39772;SDS011;25451;51.960;6.250;2022-09-12T06:26:26;30.77;;;12.73;;
39772;SDS011;25451;51.960;6.250;2022-09-12T06:28:52;27.77;;;12.02;;
39772;SDS011;25451;51.960;6.250;2022-09-12T06:31:20;26.33;;;12.00;;
39772;SDS011;25451;51.960;6.250;2022-09-12T06:33:48;27.33;;;11.95;;
39772;SDS011;25451;51.960;6.250;2022-09-12T06:36:19;23.48;;;11.18;;
39772;SDS011;25451;51.960;6.250;2022-09-12T06:38:46;24.20;;;12.07;;
39772;SDS011;25451;51.960;6.250;2022-09-12T06:41:15;24.65;;;11.65;;
39772;SDS011;25451;51.960;6.250;2022-09-12T06:43:40;23.00;;;11.17;;
39772;SDS011;25451;51.960;6.250;2022-09-12T06:46:06;27.30;;;11.93;;
39772;SDS011;25451;51.960;6.250;2022-09-12T06:48:32;24.90;;;11.10;;
39772;SDS011;25451;51.960;6.250;2022-09-12T06:51:00;30.50;;;12.30;;
39772;SDS011;25451;51.960;6.250;2022-09-12T06:53:31;26.75;;;11.88;;
39772;SDS011;25451;51.960;6.250;2022-09-12T06:56:04;24.90;;;12.48;;
39772;SDS011;25451;51.960;6.250;2022-09-12T06:58:31;25.08;;;12.02;;
39772;SDS011;25451;51.960;6.250;2022-09-12T07:01:08;28.73;;;12.48;;
39772;SDS011;25451;51.960;6.250;2022-09-12T07:03:35;31.15;;;12.25;;
39772;SDS011;25451;51.960;6.250;2022-09-12T07:06:06;27.30;;;12.55;;
39772;SDS011;25451;51.960;6.250;2022-09-12T07:08:37;26.35;;;12.38;;
39772;SDS011;25451;51.960;6.250;2022-09-12T07:11:13;23.80;;;11.48;;
39772;SDS011;25451;51.960;6.250;2022-09-12T07:13:40;28.67;;;11.77;;
39772;SDS011;25451;51.960;6.250;2022-09-12T07:16:06;25.50;;;11.80;;
39772;SDS011;25451;51.960;6.250;2022-09-12T07:18:33;21.90;;;10.68;;
39772;SDS011;25451;51.960;6.250;2022-09-12T07:21:02;25.85;;;11.80;;
39772;SDS011;25451;51.960;6.250;2022-09-12T07:23:28;27.63;;;11.32;;
39772;SDS011;25451;51.960;6.250;2022-09-12T07:25:54;23.70;;;12.07;;
39772;SDS011;25451;51.960;6.250;2022-09-12T07:28:21;29.60;;;11.90;;
39772;SDS011;25451;51.960;6.250;2022-09-12T07:30:48;24.20;;;11.00;;
39772;SDS011;25451;51.960;6.250;2022-09-12T07:33:13;25.23;;;11.33;;
39772;SDS011;25451;51.960;6.250;2022-09-12T07:35:39;25.13;;;11.45;;
39772;SDS011;25451;51.960;6.250;2022-09-12T07:38:04;23.17;;;11.20;;
39772;SDS011;25451;51.960;6.250;2022-09-12T07:40:29;25.13;;;12.75;;
39772;SDS011;25451;51.960;6.250;2022-09-12T07:42:54;27.33;;;12.35;;
39772;SDS011;25451;51.960;6.250;2022-09-12T07:45:20;28.27;;;12.70;;
39772;SDS011;25451;51.960;6.250;2022-09-12T07:47:45;33.47;;;13.23;;
39772;SDS011;25451;51.960;6.250;2022-09-12T07:50:10;28.20;;;13.47;;
39772;SDS011;25451;51.960;6.250;2022-09-12T07:52:35;28.83;;;12.83;;
39772;SDS011;25451;51.960;6.250;2022-09-12T07:55:01;29.07;;;13.40;;
39772;SDS011;25451;51.960;6.250;2022-09-12T07:57:27;27.35;;;12.52;;
39772;SDS011;25451;51.960;6.250;2022-09-12T07:59:52;30.43;;;13.70;;
39772;SDS011;25451;51.960;6.250;2022-09-12T08:02:17;31.33;;;13.63;;
39772;SDS011;25451;51.960;6.250;2022-09-12T08:04:43;34.50;;;14.03;;
39772;SDS011;25451;51.960;6.250;2022-09-12T08:07:08;32.78;;;14.25;;
39772;SDS011;25451;51.960;6.250;2022-09-12T08:09:34;35.70;;;14.90;;
39772;SDS011;25451;51.960;6.250;2022-09-12T08:12:00;28.07;;;14.00;;
39772;SDS011;25451;51.960;6.250;2022-09-12T08:14:25;30.92;;;14.13;;
39772;SDS011;25451;51.960;6.250;2022-09-12T08:16:51;32.85;;;14.70;;
39772;SDS011;25451;51.960;6.250;2022-09-12T08:19:16;33.53;;;14.77;;
39772;SDS011;25451;51.960;6.250;2022-09-12T08:21:42;30.63;;;14.53;;
39772;SDS011;25451;51.960;6.250;2022-09-12T08:24:09;30.73;;;14.50;;
39772;SDS011;25451;51.960;6.250;2022-09-12T08:26:36;29.67;;;14.20;;
39772;SDS011;25451;51.960;6.250;2022-09-12T08:29:01;32.50;;;13.90;;
39772;SDS011;25451;51.960;6.250;2022-09-12T08:31:28;32.97;;;14.95;;
39772;SDS011;25451;51.960;6.250;2022-09-12T08:34:00;31.93;;;15.27;;
39772;SDS011;25451;51.960;6.250;2022-09-12T08:36:26;31.23;;;14.30;;
39772;SDS011;25451;51.960;6.250;2022-09-12T08:38:54;30.35;;;14.25;;
39772;SDS011;25451;51.960;6.250;2022-09-12T08:44:08;28.85;;;13.65;;
39772;SDS011;25451;51.960;6.250;2022-09-12T08:52:12;29.23;;;14.15;;
39772;SDS011;25451;51.960;6.250;2022-09-12T08:54:41;27.53;;;12.90;;
39772;SDS011;25451;51.960;6.250;2022-09-12T08:57:09;28.85;;;13.93;;
39772;SDS011;25451;51.960;6.250;2022-09-12T08:59:36;31.58;;;15.07;;
39772;SDS011;25451;51.960;6.250;2022-09-12T09:02:04;27.73;;;14.82;;
39772;SDS011;25451;51.960;6.250;2022-09-12T09:04:49;30.05;;;14.43;;
39772;SDS011;25451;51.960;6.250;2022-09-12T09:18:17;28.13;;;13.85;;
39772;SDS011;25451;51.960;6.250;2022-09-12T09:23:27;28.77;;;14.13;;
39772;SDS011;25451;51.960;6.250;2022-09-12T09:28:30;30.20;;;14.70;;
39772;SDS011;25451;51.960;6.250;2022-09-12T09:31:03;28.00;;;13.27;;
39772;SDS011;25451;51.960;6.250;2022-09-12T09:33:31;25.67;;;12.90;;
39772;SDS011;25451;51.960;6.250;2022-09-12T09:36:04;25.23;;;12.85;;
39772;SDS011;25451;51.960;6.250;2022-09-12T09:38:36;23.57;;;11.87;;
39772;SDS011;25451;51.960;6.250;2022-09-12T09:43:48;22.80;;;12.30;;
39772;SDS011;25451;51.960;6.250;2022-09-12T09:46:14;21.97;;;12.27;;
39772;SDS011;25451;51.960;6.250;2022-09-12T09:48:40;21.15;;;12.10;;
39772;SDS011;25451;51.960;6.250;2022-09-12T09:51:09;19.00;;;11.25;;
39772;SDS011;25451;51.960;6.250;2022-09-12T09:53:51;22.60;;;11.98;;
39772;SDS011;25451;51.960;6.250;2022-09-12T09:58:48;18.83;;;10.07;;
39772;SDS011;25451;51.960;6.250;2022-09-12T10:01:14;17.43;;;10.03;;
39772;SDS011;25451;51.960;6.250;2022-09-12T10:03:50;17.83;;;9.13;;
39772;SDS011;25451;51.960;6.250;2022-09-12T10:06:21;16.38;;;9.30;;
39772;SDS011;25451;51.960;6.250;2022-09-12T10:08:49;16.98;;;9.40;;
39772;SDS011;25451;51.960;6.250;2022-09-12T10:13:41;22.00;;;9.67;;
39772;SDS011;25451;51.960;6.250;2022-09-12T10:16:24;18.60;;;10.38;;
39772;SDS011;25451;51.960;6.250;2022-09-12T10:19:02;17.10;;;9.23;;
39772;SDS011;25451;51.960;6.250;2022-09-12T10:21:34;16.53;;;8.73;;
39772;SDS011;25451;51.960;6.250;2022-09-12T10:24:24;17.65;;;9.13;;
39772;SDS011;25451;51.960;6.250;2022-09-12T10:29:43;17.42;;;9.00;;
39772;SDS011;25451;51.960;6.250;2022-09-12T10:32:23;15.43;;;8.57;;
39772;SDS011;25451;51.960;6.250;2022-09-12T10:35:01;13.67;;;8.00;;
39772;SDS011;25451;51.960;6.250;2022-09-12T10:37:32;13.18;;;7.28;;
39772;SDS011;25451;51.960;6.250;2022-09-12T10:40:00;11.77;;;6.60;;
39772;SDS011;25451;51.960;6.250;2022-09-12T10:47:51;11.23;;;6.70;;
39772;SDS011;25451;51.960;6.250;2022-09-12T10:50:39;11.73;;;6.40;;
39772;SDS011;25451;51.960;6.250;2022-09-12T10:53:25;12.10;;;6.07;;
39772;SDS011;25451;51.960;6.250;2022-09-12T10:56:12;11.38;;;5.97;;
39772;SDS011;25451;51.960;6.250;2022-09-12T11:17:35;8.90;;;4.55;;
39772;SDS011;25451;51.960;6.250;2022-09-12T11:31:19;8.48;;;4.72;;
39772;SDS011;25451;51.960;6.250;2022-09-12T11:34:09;8.57;;;4.30;;
39772;SDS011;25451;51.960;6.250;2022-09-12T11:39:15;6.72;;;3.25;;
39772;SDS011;25451;51.960;6.250;2022-09-12T11:41:44;6.87;;;3.10;;
39772;SDS011;25451;51.960;6.250;2022-09-12T11:44:21;6.05;;;3.13;;
39772;SDS011;25451;51.960;6.250;2022-09-12T11:46:49;6.50;;;2.97;;
39772;SDS011;25451;51.960;6.250;2022-09-12T11:49:16;4.60;;;2.80;;
39772;SDS011;25451;51.960;6.250;2022-09-12T11:59:50;4.72;;;2.90;;
39772;SDS011;25451;51.960;6.250;2022-09-12T12:02:26;6.20;;;2.80;;
39772;SDS011;25451;51.960;6.250;2022-09-12T12:05:02;7.85;;;3.45;;
39772;SDS011;25451;51.960;6.250;2022-09-12T12:07:40;6.43;;;3.90;;
39772;SDS011;25451;51.960;6.250;2022-09-12T12:10:20;6.43;;;2.97;;
39772;SDS011;25451;51.960;6.250;2022-09-12T12:13:02;5.13;;;3.00;;
39772;SDS011;25451;51.960;6.250;2022-09-12T12:15:31;4.88;;;2.80;;
39772;SDS011;25451;51.960;6.250;2022-09-12T12:18:04;6.80;;;2.83;;
39772;SDS011;25451;51.960;6.250;2022-09-12T12:20:32;4.40;;;2.60;;
39772;SDS011;25451;51.960;6.250;2022-09-12T12:22:58;4.53;;;2.80;;
39772;SDS011;25451;51.960;6.250;2022-09-12T12:25:25;4.93;;;3.00;;
39772;SDS011;25451;51.960;6.250;2022-09-12T12:28:03;5.03;;;2.90;;
39772;SDS011;25451;51.960;6.250;2022-09-12T12:37:59;5.40;;;3.03;;
39772;SDS011;25451;51.960;6.250;2022-09-12T12:40:25;5.53;;;3.30;;
39772;SDS011;25451;51.960;6.250;2022-09-12T12:43:01;4.68;;;3.10;;
39772;SDS011;25451;51.960;6.250;2022-09-12T12:47:58;5.73;;;2.90;;
39772;SDS011;25451;51.960;6.250;2022-09-12T12:50:27;4.30;;;3.00;;
39772;SDS011;25451;51.960;6.250;2022-09-12T12:52:58;6.67;;;3.27;;
39772;SDS011;25451;51.960;6.250;2022-09-12T13:01:02;7.07;;;3.50;;
39772;SDS011;25451;51.960;6.250;2022-09-12T13:03:29;5.82;;;3.50;;
39772;SDS011;25451;51.960;6.250;2022-09-12T13:05:59;5.87;;;3.10;;
39772;SDS011;25451;51.960;6.250;2022-09-12T13:08:30;5.85;;;3.17;;
39772;SDS011;25451;51.960;6.250;2022-09-12T13:10:59;5.43;;;3.38;;
39772;SDS011;25451;51.960;6.250;2022-09-12T13:13:31;5.47;;;3.33;;
39772;SDS011;25451;51.960;6.250;2022-09-12T13:16:01;5.05;;;3.08;;
39772;SDS011;25451;51.960;6.250;2022-09-12T13:18:27;6.43;;;3.30;;
39772;SDS011;25451;51.960;6.250;2022-09-12T13:21:11;5.38;;;2.80;;
39772;SDS011;25451;51.960;6.250;2022-09-12T13:23:40;7.07;;;3.67;;
39772;SDS011;25451;51.960;6.250;2022-09-12T13:26:22;6.60;;;3.47;;
39772;SDS011;25451;51.960;6.250;2022-09-12T13:28:49;5.90;;;3.10;;
39772;SDS011;25451;51.960;6.250;2022-09-12T13:31:32;5.28;;;3.30;;
39772;SDS011;25451;51.960;6.250;2022-09-12T13:33:58;6.10;;;3.20;;
39772;SDS011;25451;51.960;6.250;2022-09-12T13:39:28;7.03;;;3.30;;
39772;SDS011;25451;51.960;6.250;2022-09-12T13:44:44;7.13;;;3.42;;
39772;SDS011;25451;51.960;6.250;2022-09-12T13:47:15;8.10;;;3.85;;
39772;SDS011;25451;51.960;6.250;2022-09-12T13:49:56;7.22;;;3.97;;
39772;SDS011;25451;51.960;6.250;2022-09-12T13:52:23;6.70;;;3.97;;
39772;SDS011;25451;51.960;6.250;2022-09-12T13:54:52;8.30;;;4.10;;
39772;SDS011;25451;51.960;6.250;2022-09-12T13:57:26;7.03;;;3.78;;
39772;SDS011;25451;51.960;6.250;2022-09-12T14:00:06;7.25;;;4.28;;
39772;SDS011;25451;51.960;6.250;2022-09-12T14:02:44;7.68;;;3.88;;
39772;SDS011;25451;51.960;6.250;2022-09-12T14:05:18;5.55;;;3.55;;
39772;SDS011;25451;51.960;6.250;2022-09-12T14:07:48;5.67;;;3.10;;
39772;SDS011;25451;51.960;6.250;2022-09-12T14:10:27;6.03;;;3.17;;
39772;SDS011;25451;51.960;6.250;2022-09-12T14:12:56;7.30;;;4.03;;
39772;SDS011;25451;51.960;6.250;2022-09-12T14:15:25;5.82;;;3.88;;
39772;SDS011;25451;51.960;6.250;2022-09-12T14:17:53;6.95;;;3.75;;
39772;SDS011;25451;51.960;6.250;2022-09-12T14:20:25;7.13;;;3.57;;
39772;SDS011;25451;51.960;6.250;2022-09-12T14:22:55;7.65;;;3.60;;
39772;SDS011;25451;51.960;6.250;2022-09-12T14:25:25;5.55;;;3.42;;
39772;SDS011;25451;51.960;6.250;2022-09-12T14:27:54;4.97;;;3.10;;
39772;SDS011;25451;51.960;6.250;2022-09-12T14:30:28;5.20;;;3.10;;
39772;SDS011;25451;51.960;6.250;2022-09-12T14:35:36;6.95;;;3.38;;
39772;SDS011;25451;51.960;6.250;2022-09-12T14:38:05;6.00;;;2.78;;
39772;SDS011;25451;51.960;6.250;2022-09-12T14:40:44;6.15;;;2.63;;
39772;SDS011;25451;51.960;6.250;2022-09-12T14:45:55;7.00;;;2.87;;
39772;SDS011;25451;51.960;6.250;2022-09-12T14:48:26;4.00;;;2.58;;
39772;SDS011;25451;51.960;6.250;2022-09-12T14:50:55;4.50;;;2.40;;
39772;SDS011;25451;51.960;6.250;2022-09-12T14:53:29;5.00;;;2.70;;
39772;SDS011;25451;51.960;6.250;2022-09-12T14:56:01;5.03;;;2.90;;
39772;SDS011;25451;51.960;6.250;2022-09-12T14:58:37;3.60;;;2.50;;
39772;SDS011;25451;51.960;6.250;2022-09-12T15:06:24;4.72;;;2.70;;
39772;SDS011;25451;51.960;6.250;2022-09-12T15:08:53;3.92;;;2.60;;
39772;SDS011;25451;51.960;6.250;2022-09-12T15:11:19;5.57;;;3.03;;
39772;SDS011;25451;51.960;6.250;2022-09-12T15:13:45;5.32;;;2.70;;
39772;SDS011;25451;51.960;6.250;2022-09-12T15:16:10;4.57;;;2.70;;
39772;SDS011;25451;51.960;6.250;2022-09-12T15:18:36;5.25;;;2.78;;
39772;SDS011;25451;51.960;6.250;2022-09-12T15:21:03;3.73;;;2.40;;
39772;SDS011;25451;51.960;6.250;2022-09-12T15:23:31;4.53;;;2.33;;
39772;SDS011;25451;51.960;6.250;2022-09-12T15:25:59;4.80;;;2.53;;
39772;SDS011;25451;51.960;6.250;2022-09-12T15:28:25;4.30;;;2.30;;
39772;SDS011;25451;51.960;6.250;2022-09-12T15:30:51;5.40;;;2.33;;
39772;SDS011;25451;51.960;6.250;2022-09-12T15:33:19;4.22;;;2.40;;
39772;SDS011;25451;51.960;6.250;2022-09-12T15:35:46;4.15;;;2.47;;
39772;SDS011;25451;51.960;6.250;2022-09-12T15:38:12;3.67;;;2.40;;
39772;SDS011;25451;51.960;6.250;2022-09-12T15:40:37;3.30;;;2.40;;
39772;SDS011;25451;51.960;6.250;2022-09-12T15:43:03;6.07;;;2.50;;
39772;SDS011;25451;51.960;6.250;2022-09-12T15:45:29;6.90;;;2.60;;
39772;SDS011;25451;51.960;6.250;2022-09-12T15:47:56;4.18;;;2.60;;
39772;SDS011;25451;51.960;6.250;2022-09-12T15:50:22;3.40;;;2.07;;
39772;SDS011;25451;51.960;6.250;2022-09-12T15:52:47;3.70;;;2.15;;
39772;SDS011;25451;51.960;6.250;2022-09-12T15:55:20;4.40;;;2.33;;
39772;SDS011;25451;51.960;6.250;2022-09-12T15:57:50;6.17;;;2.10;;
39772;SDS011;25451;51.960;6.250;2022-09-12T16:00:16;4.78;;;2.28;;
39772;SDS011;25451;51.960;6.250;2022-09-12T16:02:43;4.60;;;2.30;;
39772;SDS011;25451;51.960;6.250;2022-09-12T16:05:12;4.78;;;2.17;;
39772;SDS011;25451;51.960;6.250;2022-09-12T16:07:40;3.50;;;2.20;;
39772;SDS011;25451;51.960;6.250;2022-09-12T16:10:06;6.10;;;2.13;;
39772;SDS011;25451;51.960;6.250;2022-09-12T16:12:31;5.40;;;2.30;;
39772;SDS011;25451;51.960;6.250;2022-09-12T16:14:56;3.73;;;2.20;;
39772;SDS011;25451;51.960;6.250;2022-09-12T16:17:22;3.25;;;2.10;;
39772;SDS011;25451;51.960;6.250;2022-09-12T16:19:48;3.13;;;2.10;;
39772;SDS011;25451;51.960;6.250;2022-09-12T16:22:13;3.80;;;2.33;;
39772;SDS011;25451;51.960;6.250;2022-09-12T16:24:38;2.97;;;2.20;;
39772;SDS011;25451;51.960;6.250;2022-09-12T16:27:04;4.93;;;2.30;;
39772;SDS011;25451;51.960;6.250;2022-09-12T16:29:29;4.00;;;2.08;;
39772;SDS011;25451;51.960;6.250;2022-09-12T16:31:55;3.27;;;2.10;;
39772;SDS011;25451;51.960;6.250;2022-09-12T16:34:20;3.53;;;2.27;;
39772;SDS011;25451;51.960;6.250;2022-09-12T16:36:45;4.83;;;2.40;;
39772;SDS011;25451;51.960;6.250;2022-09-12T16:39:11;3.40;;;2.30;;
39772;SDS011;25451;51.960;6.250;2022-09-12T16:41:36;3.93;;;2.17;;
39772;SDS011;25451;51.960;6.250;2022-09-12T16:44:01;4.77;;;2.20;;
39772;SDS011;25451;51.960;6.250;2022-09-12T16:46:27;5.93;;;2.22;;
39772;SDS011;25451;51.960;6.250;2022-09-12T16:48:53;3.33;;;2.30;;
39772;SDS011;25451;51.960;6.250;2022-09-12T16:51:21;4.00;;;2.22;;
39772;SDS011;25451;51.960;6.250;2022-09-12T16:53:48;4.07;;;2.15;;
39772;SDS011;25451;51.960;6.250;2022-09-12T16:56:14;3.23;;;2.07;;
39772;SDS011;25451;51.960;6.250;2022-09-12T16:58:39;3.37;;;2.30;;
39772;SDS011;25451;51.960;6.250;2022-09-12T17:03:32;4.68;;;2.30;;
39772;SDS011;25451;51.960;6.250;2022-09-12T17:06:07;3.75;;;2.38;;
39772;SDS011;25451;51.960;6.250;2022-09-12T17:08:36;4.63;;;2.22;;
39772;SDS011;25451;51.960;6.250;2022-09-12T17:11:07;3.53;;;2.30;;
39772;SDS011;25451;51.960;6.250;2022-09-12T17:13:34;3.58;;;2.00;;
39772;SDS011;25451;51.960;6.250;2022-09-12T17:16:03;4.90;;;2.00;;
39772;SDS011;25451;51.960;6.250;2022-09-12T17:18:30;3.72;;;2.35;;
39772;SDS011;25451;51.960;6.250;2022-09-12T17:20:55;3.83;;;2.20;;
39772;SDS011;25451;51.960;6.250;2022-09-12T17:23:20;3.90;;;2.00;;
39772;SDS011;25451;51.960;6.250;2022-09-12T17:25:46;2.90;;;2.03;;